sensor_id;sensor_type;location;lat;lon;timestamp;P1;durP1;ratioP1;P2;durP2;ratioP2
40729;SDS011;26418;50.070;8.436;2023-01-26T00:02:15;23.33;;;8.35;;
40729;SDS011;26418;50.070;8.436;2023-01-26T00:04:40;29.95;;;10.93;;
40729;SDS011;26418;50.070;8.436;2023-01-26T00:07:06;24.83;;;11.25;;
40729;SDS011;26418;50.070;8.436;2023-01-26T00:09:31;25.20;;;9.95;;
40729;SDS011;26418;50.070;8.436;2023-01-26T00:12:01;21.92;;;9.82;;
40729;SDS011;26418;50.070;8.436;2023-01-26T00:14:27;29.15;;;11.25;;
40729;SDS011;26418;50.070;8.436;2023-01-26T00:17:12;27.20;;;11.23;;
40729;SDS011;26418;50.070;8.436;2023-01-26T00:19:37;25.35;;;10.50;;
40729;SDS011;26418;50.070;8.436;2023-01-26T00:22:03;24.52;;;10.98;;
40729;SDS011;26418;50.070;8.436;2023-01-26T00:24:28;25.35;;;10.20;;
40729;SDS011;26418;50.070;8.436;2023-01-26T00:27:02;25.23;;;10.57;;
40729;SDS011;26418;50.070;8.436;2023-01-26T00:29:31;25.17;;;11.68;;
40729;SDS011;26418;50.070;8.436;2023-01-26T00:32:16;29.33;;;11.88;;
40729;SDS011;26418;50.070;8.436;2023-01-26T00:38:23;28.90;;;11.65;;
40729;SDS011;26418;50.070;8.436;2023-01-26T00:41:17;29.92;;;11.75;;
40729;SDS011;26418;50.070;8.436;2023-01-26T00:44:31;31.85;;;11.65;;
40729;SDS011;26418;50.070;8.436;2023-01-26T00:47:02;24.38;;;11.82;;
40729;SDS011;26418;50.070;8.436;2023-01-26T00:49:29;31.02;;;12.05;;
40729;SDS011;26418;50.070;8.436;2023-01-26T00:52:17;24.83;;;11.07;;
40729;SDS011;26418;50.070;8.436;2023-01-26T00:55:23;24.35;;;9.98;;
40729;SDS011;26418;50.070;8.436;2023-01-26T00:58:17;24.25;;;10.35;;
40729;SDS011;26418;50.070;8.436;2023-01-26T01:00:54;25.92;;;11.73;;
40729;SDS011;26418;50.070;8.436;2023-01-26T01:03:20;30.05;;;11.25;;
40729;SDS011;26418;50.070;8.436;2023-01-26T01:05:45;27.98;;;11.32;;
40729;SDS011;26418;50.070;8.436;2023-01-26T01:08:10;27.38;;;10.73;;
40729;SDS011;26418;50.070;8.436;2023-01-26T01:10:35;19.50;;;9.57;;
40729;SDS011;26418;50.070;8.436;2023-01-26T01:13:01;29.48;;;10.38;;
40729;SDS011;26418;50.070;8.436;2023-01-26T01:15:26;23.98;;;10.00;;
40729;SDS011;26418;50.070;8.436;2023-01-26T01:17:51;23.33;;;9.85;;
40729;SDS011;26418;50.070;8.436;2023-01-26T01:20:17;20.70;;;9.15;;
40729;SDS011;26418;50.070;8.436;2023-01-26T01:22:42;24.80;;;9.60;;
40729;SDS011;26418;50.070;8.436;2023-01-26T01:25:08;18.98;;;9.00;;
40729;SDS011;26418;50.070;8.436;2023-01-26T01:27:33;18.98;;;8.75;;
40729;SDS011;26418;50.070;8.436;2023-01-26T01:29:59;18.27;;;8.13;;
40729;SDS011;26418;50.070;8.436;2023-01-26T01:32:24;15.90;;;7.60;;
40729;SDS011;26418;50.070;8.436;2023-01-26T01:34:49;15.60;;;7.72;;
40729;SDS011;26418;50.070;8.436;2023-01-26T01:37:15;15.80;;;7.88;;
40729;SDS011;26418;50.070;8.436;2023-01-26T01:39:41;16.83;;;8.02;;
40729;SDS011;26418;50.070;8.436;2023-01-26T01:42:07;15.70;;;7.25;;
40729;SDS011;26418;50.070;8.436;2023-01-26T01:44:36;15.40;;;7.47;;
40729;SDS011;26418;50.070;8.436;2023-01-26T01:47:03;17.65;;;7.28;;
40729;SDS011;26418;50.070;8.436;2023-01-26T01:49:44;17.90;;;7.30;;
40729;SDS011;26418;50.070;8.436;2023-01-26T01:52:13;16.33;;;7.00;;
40729;SDS011;26418;50.070;8.436;2023-01-26T01:54:47;13.30;;;6.55;;
40729;SDS011;26418;50.070;8.436;2023-01-26T01:57:21;14.65;;;6.47;;
40729;SDS011;26418;50.070;8.436;2023-01-26T01:59:55;14.93;;;6.40;;
40729;SDS011;26418;50.070;8.436;2023-01-26T02:02:25;12.87;;;5.80;;
40729;SDS011;26418;50.070;8.436;2023-01-26T02:04:50;9.75;;;5.47;;
40729;SDS011;26418;50.070;8.436;2023-01-26T02:07:16;10.32;;;4.85;;
40729;SDS011;26418;50.070;8.436;2023-01-26T02:09:41;8.95;;;3.85;;
40729;SDS011;26418;50.070;8.436;2023-01-26T02:12:28;6.93;;;3.38;;
40729;SDS011;26418;50.070;8.436;2023-01-26T02:14:54;7.00;;;3.50;;
40729;SDS011;26418;50.070;8.436;2023-01-26T02:17:21;6.30;;;3.55;;
40729;SDS011;26418;50.070;8.436;2023-01-26T02:22:20;5.32;;;2.95;;
40729;SDS011;26418;50.070;8.436;2023-01-26T02:24:58;7.15;;;3.67;;
40729;SDS011;26418;50.070;8.436;2023-01-26T02:27:28;5.67;;;3.17;;
40729;SDS011;26418;50.070;8.436;2023-01-26T02:29:54;5.07;;;2.53;;
40729;SDS011;26418;50.070;8.436;2023-01-26T02:32:22;6.63;;;2.97;;
40729;SDS011;26418;50.070;8.436;2023-01-26T02:34:53;4.57;;;2.35;;
40729;SDS011;26418;50.070;8.436;2023-01-26T02:37:19;5.22;;;2.60;;
40729;SDS011;26418;50.070;8.436;2023-01-26T02:40:01;3.03;;;2.03;;
40729;SDS011;26418;50.070;8.436;2023-01-26T02:42:34;4.68;;;2.45;;
40729;SDS011;26418;50.070;8.436;2023-01-26T02:45:06;5.10;;;2.47;;
40729;SDS011;26418;50.070;8.436;2023-01-26T02:47:33;5.88;;;2.80;;
40729;SDS011;26418;50.070;8.436;2023-01-26T02:49:59;5.70;;;2.47;;
40729;SDS011;26418;50.070;8.436;2023-01-26T02:52:25;4.10;;;2.10;;
40729;SDS011;26418;50.070;8.436;2023-01-26T02:54:52;6.38;;;2.85;;
40729;SDS011;26418;50.070;8.436;2023-01-26T02:57:37;5.25;;;2.63;;
40729;SDS011;26418;50.070;8.436;2023-01-26T03:00:03;4.07;;;2.25;;
40729;SDS011;26418;50.070;8.436;2023-01-26T03:02:30;5.45;;;2.30;;
40729;SDS011;26418;50.070;8.436;2023-01-26T03:04:56;5.85;;;2.60;;
40729;SDS011;26418;50.070;8.436;2023-01-26T03:07:21;6.80;;;3.10;;
40729;SDS011;26418;50.070;8.436;2023-01-26T03:09:46;5.82;;;2.58;;
40729;SDS011;26418;50.070;8.436;2023-01-26T03:12:12;4.57;;;2.63;;
40729;SDS011;26418;50.070;8.436;2023-01-26T03:14:37;6.28;;;3.13;;
40729;SDS011;26418;50.070;8.436;2023-01-26T03:17:02;8.20;;;2.88;;
40729;SDS011;26418;50.070;8.436;2023-01-26T03:19:28;5.15;;;2.95;;
40729;SDS011;26418;50.070;8.436;2023-01-26T03:22:11;6.53;;;2.90;;
40729;SDS011;26418;50.070;8.436;2023-01-26T03:24:55;4.20;;;2.65;;
40729;SDS011;26418;50.070;8.436;2023-01-26T03:27:46;5.57;;;2.90;;
40729;SDS011;26418;50.070;8.436;2023-01-26T03:30:14;5.85;;;3.00;;
40729;SDS011;26418;50.070;8.436;2023-01-26T03:32:42;6.63;;;2.65;;
40729;SDS011;26418;50.070;8.436;2023-01-26T03:35:07;7.43;;;3.45;;
40729;SDS011;26418;50.070;8.436;2023-01-26T03:37:42;3.25;;;2.50;;
40729;SDS011;26418;50.070;8.436;2023-01-26T03:40:09;6.85;;;2.72;;
40729;SDS011;26418;50.070;8.436;2023-01-26T03:42:54;4.63;;;2.97;;
40729;SDS011;26418;50.070;8.436;2023-01-26T03:45:39;8.20;;;4.13;;
40729;SDS011;26418;50.070;8.436;2023-01-26T03:48:23;7.53;;;3.45;;
40729;SDS011;26418;50.070;8.436;2023-01-26T03:51:06;6.35;;;3.63;;
40729;SDS011;26418;50.070;8.436;2023-01-26T03:53:50;8.95;;;3.92;;
40729;SDS011;26418;50.070;8.436;2023-01-26T03:56:34;5.53;;;3.45;;
40729;SDS011;26418;50.070;8.436;2023-01-26T03:59:02;6.65;;;3.65;;
40729;SDS011;26418;50.070;8.436;2023-01-26T04:01:39;6.03;;;3.50;;
40729;SDS011;26418;50.070;8.436;2023-01-26T04:04:26;5.10;;;3.08;;
40729;SDS011;26418;50.070;8.436;2023-01-26T04:07:10;7.28;;;3.83;;
40729;SDS011;26418;50.070;8.436;2023-01-26T04:09:53;7.82;;;3.50;;
40729;SDS011;26418;50.070;8.436;2023-01-26T04:12:19;5.30;;;3.03;;
40729;SDS011;26418;50.070;8.436;2023-01-26T04:14:44;8.98;;;3.95;;
40729;SDS011;26418;50.070;8.436;2023-01-26T04:17:28;7.57;;;3.53;;
40729;SDS011;26418;50.070;8.436;2023-01-26T04:20:12;6.50;;;3.50;;
40729;SDS011;26418;50.070;8.436;2023-01-26T04:22:56;8.93;;;3.88;;
40729;SDS011;26418;50.070;8.436;2023-01-26T04:25:21;8.10;;;3.97;;
40729;SDS011;26418;50.070;8.436;2023-01-26T04:27:47;6.72;;;3.92;;
40729;SDS011;26418;50.070;8.436;2023-01-26T04:30:13;8.73;;;4.22;;
40729;SDS011;26418;50.070;8.436;2023-01-26T04:32:40;10.70;;;4.53;;
40729;SDS011;26418;50.070;8.436;2023-01-26T04:35:06;6.35;;;4.15;;
40729;SDS011;26418;50.070;8.436;2023-01-26T04:37:33;9.98;;;4.20;;
40729;SDS011;26418;50.070;8.436;2023-01-26T04:39:58;9.63;;;4.47;;
40729;SDS011;26418;50.070;8.436;2023-01-26T04:42:24;10.00;;;5.30;;
40729;SDS011;26418;50.070;8.436;2023-01-26T04:44:52;9.98;;;4.88;;
40729;SDS011;26418;50.070;8.436;2023-01-26T04:47:18;9.77;;;4.88;;
40729;SDS011;26418;50.070;8.436;2023-01-26T04:49:44;10.88;;;5.38;;
40729;SDS011;26418;50.070;8.436;2023-01-26T04:52:10;11.10;;;5.65;;
40729;SDS011;26418;50.070;8.436;2023-01-26T04:54:35;9.82;;;4.90;;
40729;SDS011;26418;50.070;8.436;2023-01-26T04:57:01;9.95;;;4.95;;
40729;SDS011;26418;50.070;8.436;2023-01-26T04:59:26;8.25;;;4.22;;
40729;SDS011;26418;50.070;8.436;2023-01-26T05:01:52;8.05;;;4.43;;
40729;SDS011;26418;50.070;8.436;2023-01-26T05:04:17;8.27;;;4.75;;
40729;SDS011;26418;50.070;8.436;2023-01-26T05:06:43;10.48;;;4.75;;
40729;SDS011;26418;50.070;8.436;2023-01-26T05:09:08;11.10;;;4.53;;
40729;SDS011;26418;50.070;8.436;2023-01-26T05:11:33;11.13;;;4.93;;
40729;SDS011;26418;50.070;8.436;2023-01-26T05:13:59;8.52;;;4.78;;
40729;SDS011;26418;50.070;8.436;2023-01-26T05:16:24;11.15;;;5.75;;
40729;SDS011;26418;50.070;8.436;2023-01-26T05:18:50;10.70;;;5.47;;
40729;SDS011;26418;50.070;8.436;2023-01-26T05:21:15;9.98;;;5.18;;
40729;SDS011;26418;50.070;8.436;2023-01-26T05:23:41;7.45;;;3.92;;
40729;SDS011;26418;50.070;8.436;2023-01-26T05:26:06;9.63;;;4.57;;
40729;SDS011;26418;50.070;8.436;2023-01-26T05:28:32;8.05;;;4.60;;
40729;SDS011;26418;50.070;8.436;2023-01-26T05:30:58;9.52;;;4.75;;
40729;SDS011;26418;50.070;8.436;2023-01-26T05:33:23;10.75;;;5.00;;
40729;SDS011;26418;50.070;8.436;2023-01-26T05:35:49;9.48;;;5.00;;
40729;SDS011;26418;50.070;8.436;2023-01-26T05:38:15;11.65;;;5.38;;
40729;SDS011;26418;50.070;8.436;2023-01-26T05:40:41;10.88;;;5.18;;
40729;SDS011;26418;50.070;8.436;2023-01-26T05:43:07;13.18;;;7.18;;
40729;SDS011;26418;50.070;8.436;2023-01-26T05:45:33;13.57;;;7.13;;
40729;SDS011;26418;50.070;8.436;2023-01-26T05:47:58;16.75;;;6.93;;
40729;SDS011;26418;50.070;8.436;2023-01-26T05:50:24;14.70;;;7.35;;
40729;SDS011;26418;50.070;8.436;2023-01-26T05:52:49;13.23;;;7.18;;
40729;SDS011;26418;50.070;8.436;2023-01-26T05:55:14;18.70;;;7.93;;
40729;SDS011;26418;50.070;8.436;2023-01-26T05:57:40;15.63;;;7.22;;
40729;SDS011;26418;50.070;8.436;2023-01-26T06:00:06;15.15;;;7.78;;
40729;SDS011;26418;50.070;8.436;2023-01-26T06:02:33;13.23;;;6.72;;
40729;SDS011;26418;50.070;8.436;2023-01-26T06:04:58;10.90;;;5.88;;
40729;SDS011;26418;50.070;8.436;2023-01-26T06:07:24;11.85;;;6.22;;
40729;SDS011;26418;50.070;8.436;2023-01-26T06:09:50;14.75;;;6.00;;
40729;SDS011;26418;50.070;8.436;2023-01-26T06:12:16;12.45;;;6.55;;
40729;SDS011;26418;50.070;8.436;2023-01-26T06:14:43;12.20;;;6.68;;
40729;SDS011;26418;50.070;8.436;2023-01-26T06:17:09;12.00;;;6.18;;
40729;SDS011;26418;50.070;8.436;2023-01-26T06:19:35;12.85;;;6.43;;
40729;SDS011;26418;50.070;8.436;2023-01-26T06:22:01;10.70;;;5.90;;
40729;SDS011;26418;50.070;8.436;2023-01-26T06:24:27;12.43;;;5.85;;
40729;SDS011;26418;50.070;8.436;2023-01-26T06:26:52;13.93;;;6.30;;
40729;SDS011;26418;50.070;8.436;2023-01-26T06:29:18;11.48;;;5.30;;
40729;SDS011;26418;50.070;8.436;2023-01-26T06:31:43;9.23;;;5.35;;
40729;SDS011;26418;50.070;8.436;2023-01-26T06:34:08;9.07;;;4.72;;
40729;SDS011;26418;50.070;8.436;2023-01-26T06:36:35;9.43;;;4.78;;
40729;SDS011;26418;50.070;8.436;2023-01-26T06:39:00;8.82;;;5.13;;
40729;SDS011;26418;50.070;8.436;2023-01-26T06:41:26;8.93;;;4.78;;
40729;SDS011;26418;50.070;8.436;2023-01-26T06:43:51;8.70;;;5.13;;
40729;SDS011;26418;50.070;8.436;2023-01-26T06:46:16;9.35;;;4.72;;
40729;SDS011;26418;50.070;8.436;2023-01-26T06:48:43;8.60;;;4.82;;
40729;SDS011;26418;50.070;8.436;2023-01-26T06:53:47;9.55;;;4.75;;
40729;SDS011;26418;50.070;8.436;2023-01-26T06:56:15;9.60;;;5.30;;
40729;SDS011;26418;50.070;8.436;2023-01-26T06:58:40;9.68;;;5.00;;
40729;SDS011;26418;50.070;8.436;2023-01-26T07:01:06;10.60;;;5.15;;
40729;SDS011;26418;50.070;8.436;2023-01-26T07:03:31;13.18;;;5.60;;
40729;SDS011;26418;50.070;8.436;2023-01-26T07:05:56;10.75;;;5.25;;
40729;SDS011;26418;50.070;8.436;2023-01-26T07:08:22;9.68;;;5.22;;
40729;SDS011;26418;50.070;8.436;2023-01-26T07:10:50;10.63;;;5.97;;
40729;SDS011;26418;50.070;8.436;2023-01-26T07:13:15;9.10;;;5.43;;
40729;SDS011;26418;50.070;8.436;2023-01-26T07:15:41;8.05;;;5.18;;
40729;SDS011;26418;50.070;8.436;2023-01-26T07:18:06;13.10;;;6.30;;
40729;SDS011;26418;50.070;8.436;2023-01-26T07:20:31;8.63;;;5.07;;
40729;SDS011;26418;50.070;8.436;2023-01-26T07:22:59;12.13;;;6.03;;
40729;SDS011;26418;50.070;8.436;2023-01-26T07:25:25;9.95;;;5.25;;
40729;SDS011;26418;50.070;8.436;2023-01-26T07:27:56;11.55;;;5.65;;
40729;SDS011;26418;50.070;8.436;2023-01-26T07:30:22;13.00;;;6.43;;
40729;SDS011;26418;50.070;8.436;2023-01-26T07:32:51;11.50;;;6.18;;
40729;SDS011;26418;50.070;8.436;2023-01-26T07:35:16;11.93;;;5.65;;
40729;SDS011;26418;50.070;8.436;2023-01-26T07:37:42;11.52;;;5.55;;
40729;SDS011;26418;50.070;8.436;2023-01-26T07:40:07;13.73;;;6.72;;
40729;SDS011;26418;50.070;8.436;2023-01-26T07:42:34;12.43;;;6.47;;
40729;SDS011;26418;50.070;8.436;2023-01-26T07:44:59;12.77;;;6.15;;
40729;SDS011;26418;50.070;8.436;2023-01-26T07:47:25;12.57;;;5.93;;
40729;SDS011;26418;50.070;8.436;2023-01-26T07:49:50;15.05;;;6.38;;
40729;SDS011;26418;50.070;8.436;2023-01-26T07:52:16;10.52;;;6.60;;
40729;SDS011;26418;50.070;8.436;2023-01-26T07:54:41;9.73;;;5.50;;
40729;SDS011;26418;50.070;8.436;2023-01-26T07:57:06;10.82;;;5.97;;
40729;SDS011;26418;50.070;8.436;2023-01-26T07:59:32;12.40;;;6.47;;
40729;SDS011;26418;50.070;8.436;2023-01-26T08:01:58;12.55;;;6.68;;
40729;SDS011;26418;50.070;8.436;2023-01-26T08:04:23;12.35;;;7.22;;
40729;SDS011;26418;50.070;8.436;2023-01-26T08:06:51;12.38;;;6.95;;
40729;SDS011;26418;50.070;8.436;2023-01-26T08:09:17;11.23;;;6.70;;
40729;SDS011;26418;50.070;8.436;2023-01-26T08:11:42;13.88;;;6.95;;
40729;SDS011;26418;50.070;8.436;2023-01-26T08:14:08;13.70;;;7.60;;
40729;SDS011;26418;50.070;8.436;2023-01-26T08:16:33;13.90;;;7.40;;
40729;SDS011;26418;50.070;8.436;2023-01-26T08:18:59;12.52;;;7.10;;
40729;SDS011;26418;50.070;8.436;2023-01-26T08:21:24;15.13;;;7.60;;
40729;SDS011;26418;50.070;8.436;2023-01-26T08:23:50;11.25;;;6.53;;
40729;SDS011;26418;50.070;8.436;2023-01-26T08:26:16;13.25;;;7.00;;
40729;SDS011;26418;50.070;8.436;2023-01-26T08:28:42;13.07;;;7.18;;
40729;SDS011;26418;50.070;8.436;2023-01-26T08:31:15;14.50;;;7.22;;
40729;SDS011;26418;50.070;8.436;2023-01-26T08:33:44;12.80;;;6.85;;
40729;SDS011;26418;50.070;8.436;2023-01-26T08:36:18;13.65;;;6.28;;
40729;SDS011;26418;50.070;8.436;2023-01-26T08:38:44;12.98;;;6.80;;
40729;SDS011;26418;50.070;8.436;2023-01-26T08:41:09;15.00;;;7.32;;
40729;SDS011;26418;50.070;8.436;2023-01-26T08:43:36;14.05;;;7.25;;
40729;SDS011;26418;50.070;8.436;2023-01-26T08:46:02;12.02;;;7.05;;
40729;SDS011;26418;50.070;8.436;2023-01-26T08:48:28;18.70;;;7.80;;
40729;SDS011;26418;50.070;8.436;2023-01-26T08:50:55;16.42;;;8.68;;
40729;SDS011;26418;50.070;8.436;2023-01-26T08:53:22;18.67;;;9.02;;
40729;SDS011;26418;50.070;8.436;2023-01-26T08:55:47;16.73;;;7.57;;
40729;SDS011;26418;50.070;8.436;2023-01-26T08:58:13;15.07;;;8.38;;
40729;SDS011;26418;50.070;8.436;2023-01-26T09:00:38;19.33;;;8.70;;
40729;SDS011;26418;50.070;8.436;2023-01-26T09:03:04;17.27;;;8.55;;
40729;SDS011;26418;50.070;8.436;2023-01-26T09:05:30;20.33;;;9.48;;
40729;SDS011;26418;50.070;8.436;2023-01-26T09:07:57;17.85;;;9.30;;
40729;SDS011;26418;50.070;8.436;2023-01-26T09:10:22;21.23;;;9.82;;
40729;SDS011;26418;50.070;8.436;2023-01-26T09:12:48;20.52;;;10.57;;
40729;SDS011;26418;50.070;8.436;2023-01-26T09:15:13;18.20;;;9.32;;
40729;SDS011;26418;50.070;8.436;2023-01-26T09:17:39;21.45;;;10.07;;
40729;SDS011;26418;50.070;8.436;2023-01-26T09:20:06;19.50;;;9.80;;
40729;SDS011;26418;50.070;8.436;2023-01-26T09:22:33;20.60;;;10.05;;
40729;SDS011;26418;50.070;8.436;2023-01-26T09:24:59;20.85;;;9.63;;
40729;SDS011;26418;50.070;8.436;2023-01-26T09:27:24;22.63;;;10.40;;
40729;SDS011;26418;50.070;8.436;2023-01-26T09:29:50;20.50;;;9.48;;
40729;SDS011;26418;50.070;8.436;2023-01-26T09:32:16;20.85;;;8.77;;
40729;SDS011;26418;50.070;8.436;2023-01-26T09:34:41;20.05;;;8.32;;
40729;SDS011;26418;50.070;8.436;2023-01-26T09:37:07;16.52;;;7.45;;
40729;SDS011;26418;50.070;8.436;2023-01-26T09:39:32;16.38;;;8.20;;
40729;SDS011;26418;50.070;8.436;2023-01-26T09:53:56;15.13;;;7.65;;
40729;SDS011;26418;50.070;8.436;2023-01-26T09:56:26;16.27;;;7.90;;
40729;SDS011;26418;50.070;8.436;2023-01-26T09:58:54;19.02;;;8.43;;
40729;SDS011;26418;50.070;8.436;2023-01-26T10:01:37;16.55;;;8.90;;
40729;SDS011;26418;50.070;8.436;2023-01-26T10:04:21;18.33;;;9.50;;
40729;SDS011;26418;50.070;8.436;2023-01-26T10:06:48;13.60;;;7.77;;
40729;SDS011;26418;50.070;8.436;2023-01-26T10:09:20;17.38;;;8.57;;
40729;SDS011;26418;50.070;8.436;2023-01-26T10:11:50;15.05;;;8.10;;
40729;SDS011;26418;50.070;8.436;2023-01-26T10:14:39;16.23;;;8.10;;
40729;SDS011;26418;50.070;8.436;2023-01-26T10:17:16;15.32;;;7.63;;
40729;SDS011;26418;50.070;8.436;2023-01-26T10:19:50;16.42;;;8.20;;
40729;SDS011;26418;50.070;8.436;2023-01-26T10:23:01;12.73;;;6.97;;
40729;SDS011;26418;50.070;8.436;2023-01-26T10:25:18;16.77;;;7.82;;
40729;SDS011;26418;50.070;8.436;2023-01-26T10:27:55;17.17;;;7.63;;
40729;SDS011;26418;50.070;8.436;2023-01-26T10:30:20;13.05;;;6.55;;
40729;SDS011;26418;50.070;8.436;2023-01-26T10:32:46;11.45;;;6.00;;
40729;SDS011;26418;50.070;8.436;2023-01-26T10:35:16;11.13;;;6.35;;
40729;SDS011;26418;50.070;8.436;2023-01-26T10:37:45;12.48;;;5.93;;
40729;SDS011;26418;50.070;8.436;2023-01-26T10:40:12;13.80;;;5.97;;
40729;SDS011;26418;50.070;8.436;2023-01-26T10:42:39;11.68;;;6.22;;
40729;SDS011;26418;50.070;8.436;2023-01-26T10:45:50;12.68;;;6.97;;
40729;SDS011;26418;50.070;8.436;2023-01-26T10:48:01;11.73;;;6.15;;
40729;SDS011;26418;50.070;8.436;2023-01-26T10:50:38;9.32;;;5.57;;
40729;SDS011;26418;50.070;8.436;2023-01-26T10:53:04;10.70;;;6.25;;
40729;SDS011;26418;50.070;8.436;2023-01-26T10:55:30;9.00;;;5.43;;
40729;SDS011;26418;50.070;8.436;2023-01-26T10:57:57;9.85;;;5.43;;
40729;SDS011;26418;50.070;8.436;2023-01-26T11:00:27;9.60;;;6.00;;
40729;SDS011;26418;50.070;8.436;2023-01-26T11:03:00;10.90;;;5.75;;
40729;SDS011;26418;50.070;8.436;2023-01-26T11:05:28;10.40;;;6.00;;
40729;SDS011;26418;50.070;8.436;2023-01-26T11:07:54;11.25;;;5.45;;
40729;SDS011;26418;50.070;8.436;2023-01-26T11:10:31;13.40;;;7.00;;
40729;SDS011;26418;50.070;8.436;2023-01-26T11:15:37;10.77;;;6.50;;
40729;SDS011;26418;50.070;8.436;2023-01-26T11:18:12;11.10;;;6.03;;
40729;SDS011;26418;50.070;8.436;2023-01-26T11:20:59;10.88;;;5.35;;
40729;SDS011;26418;50.070;8.436;2023-01-26T11:29:25;9.27;;;5.53;;
40729;SDS011;26418;50.070;8.436;2023-01-26T11:31:58;9.05;;;5.47;;
40729;SDS011;26418;50.070;8.436;2023-01-26T11:34:44;8.32;;;5.72;;
40729;SDS011;26418;50.070;8.436;2023-01-26T11:46:12;9.70;;;5.10;;
40729;SDS011;26418;50.070;8.436;2023-01-26T11:48:57;13.77;;;5.93;;
40729;SDS011;26418;50.070;8.436;2023-01-26T11:59:41;17.00;;;7.68;;
40729;SDS011;26418;50.070;8.436;2023-01-26T12:04:52;9.43;;;5.57;;
40729;SDS011;26418;50.070;8.436;2023-01-26T12:07:29;13.27;;;6.57;;
40729;SDS011;26418;50.070;8.436;2023-01-26T12:10:15;15.07;;;7.22;;
40729;SDS011;26418;50.070;8.436;2023-01-26T12:12:45;14.10;;;7.85;;
40729;SDS011;26418;50.070;8.436;2023-01-26T12:15:31;13.07;;;7.43;;
40729;SDS011;26418;50.070;8.436;2023-01-26T12:31:27;11.13;;;5.85;;
40729;SDS011;26418;50.070;8.436;2023-01-26T12:33:58;28.73;;;9.43;;
40729;SDS011;26418;50.070;8.436;2023-01-26T12:41:30;95.40;;;25.00;;
40729;SDS011;26418;50.070;8.436;2023-01-26T12:46:57;76.70;;;22.08;;
40729;SDS011;26418;50.070;8.436;2023-01-26T12:49:30;42.13;;;12.43;;
40729;SDS011;26418;50.070;8.436;2023-01-26T12:52:24;58.75;;;16.02;;
40729;SDS011;26418;50.070;8.436;2023-01-26T12:57:53;67.20;;;18.23;;
40729;SDS011;26418;50.070;8.436;2023-01-26T13:00:22;23.80;;;10.18;;
40729;SDS011;26418;50.070;8.436;2023-01-26T13:03:36;42.55;;;13.70;;
40729;SDS011;26418;50.070;8.436;2023-01-26T13:10:59;82.75;;;36.25;;
40729;SDS011;26418;50.070;8.436;2023-01-26T13:18:47;23.20;;;11.82;;
40729;SDS011;26418;50.070;8.436;2023-01-26T13:26:45;13.98;;;7.57;;
40729;SDS011;26418;50.070;8.436;2023-01-26T13:34:41;14.48;;;8.85;;
40729;SDS011;26418;50.070;8.436;2023-01-26T13:37:22;16.92;;;9.18;;
40729;SDS011;26418;50.070;8.436;2023-01-26T13:39:56;17.20;;;8.57;;
40729;SDS011;26418;50.070;8.436;2023-01-26T13:43:10;17.73;;;8.70;;
40729;SDS011;26418;50.070;8.436;2023-01-26T13:48:04;16.90;;;8.52;;
40729;SDS011;26418;50.070;8.436;2023-01-26T13:50:40;21.10;;;8.75;;
40729;SDS011;26418;50.070;8.436;2023-01-26T13:55:58;15.90;;;8.18;;
40729;SDS011;26418;50.070;8.436;2023-01-26T13:58:25;22.33;;;8.65;;
40729;SDS011;26418;50.070;8.436;2023-01-26T14:03:27;17.98;;;8.35;;
40729;SDS011;26418;50.070;8.436;2023-01-26T14:05:59;18.20;;;8.65;;
40729;SDS011;26418;50.070;8.436;2023-01-26T14:08:28;19.15;;;8.52;;
40729;SDS011;26418;50.070;8.436;2023-01-26T14:10:55;16.48;;;8.50;;
40729;SDS011;26418;50.070;8.436;2023-01-26T14:13:22;15.60;;;8.35;;
40729;SDS011;26418;50.070;8.436;2023-01-26T14:16:00;16.58;;;8.93;;
40729;SDS011;26418;50.070;8.436;2023-01-26T14:18:26;15.98;;;7.85;;
40729;SDS011;26418;50.070;8.436;2023-01-26T14:23:38;22.02;;;8.07;;
40729;SDS011;26418;50.070;8.436;2023-01-26T14:26:20;19.95;;;7.85;;
40729;SDS011;26418;50.070;8.436;2023-01-26T14:28:52;18.55;;;9.13;;
40729;SDS011;26418;50.070;8.436;2023-01-26T14:31:18;20.83;;;8.57;;
40729;SDS011;26418;50.070;8.436;2023-01-26T14:33:46;18.33;;;8.93;;
40729;SDS011;26418;50.070;8.436;2023-01-26T14:36:16;17.17;;;8.75;;
40729;SDS011;26418;50.070;8.436;2023-01-26T14:38:48;16.38;;;7.93;;
40729;SDS011;26418;50.070;8.436;2023-01-26T14:41:25;14.05;;;7.00;;
40729;SDS011;26418;50.070;8.436;2023-01-26T14:43:54;16.88;;;7.82;;
40729;SDS011;26418;50.070;8.436;2023-01-26T14:49:00;19.88;;;8.95;;
40729;SDS011;26418;50.070;8.436;2023-01-26T14:51:45;18.30;;;8.68;;
40729;SDS011;26418;50.070;8.436;2023-01-26T14:54:17;20.55;;;9.60;;
40729;SDS011;26418;50.070;8.436;2023-01-26T14:56:52;20.40;;;8.38;;
40729;SDS011;26418;50.070;8.436;2023-01-26T14:59:20;18.75;;;8.80;;
40729;SDS011;26418;50.070;8.436;2023-01-26T15:01:48;16.63;;;8.52;;
40729;SDS011;26418;50.070;8.436;2023-01-26T15:04:24;20.35;;;9.23;;
40729;SDS011;26418;50.070;8.436;2023-01-26T15:07:19;20.42;;;8.85;;
40729;SDS011;26418;50.070;8.436;2023-01-26T15:10:04;22.17;;;9.25;;
40729;SDS011;26418;50.070;8.436;2023-01-26T15:12:59;20.38;;;8.77;;
40729;SDS011;26418;50.070;8.436;2023-01-26T15:15:35;17.45;;;8.10;;
40729;SDS011;26418;50.070;8.436;2023-01-26T15:18:03;20.20;;;8.55;;
40729;SDS011;26418;50.070;8.436;2023-01-26T15:20:38;24.25;;;9.43;;
40729;SDS011;26418;50.070;8.436;2023-01-26T15:25:45;21.73;;;8.50;;
40729;SDS011;26418;50.070;8.436;2023-01-26T15:28:13;21.05;;;8.95;;
40729;SDS011;26418;50.070;8.436;2023-01-26T15:30:48;20.92;;;9.15;;
40729;SDS011;26418;50.070;8.436;2023-01-26T15:39:11;21.85;;;9.75;;
40729;SDS011;26418;50.070;8.436;2023-01-26T15:41:38;22.75;;;9.85;;
40729;SDS011;26418;50.070;8.436;2023-01-26T15:44:07;24.58;;;9.77;;
40729;SDS011;26418;50.070;8.436;2023-01-26T15:46:37;19.25;;;8.95;;
40729;SDS011;26418;50.070;8.436;2023-01-26T15:49:02;19.40;;;9.40;;
40729;SDS011;26418;50.070;8.436;2023-01-26T15:51:28;21.23;;;8.77;;
40729;SDS011;26418;50.070;8.436;2023-01-26T15:53:53;16.48;;;7.47;;
40729;SDS011;26418;50.070;8.436;2023-01-26T15:56:18;14.20;;;6.97;;
40729;SDS011;26418;50.070;8.436;2023-01-26T15:58:44;16.48;;;6.88;;
40729;SDS011;26418;50.070;8.436;2023-01-26T16:01:13;16.45;;;5.93;;
40729;SDS011;26418;50.070;8.436;2023-01-26T16:03:42;16.30;;;6.80;;
40729;SDS011;26418;50.070;8.436;2023-01-26T16:06:18;22.35;;;8.70;;
40729;SDS011;26418;50.070;8.436;2023-01-26T16:08:46;19.77;;;9.32;;
40729;SDS011;26418;50.070;8.436;2023-01-26T16:11:11;23.25;;;9.25;;
40729;SDS011;26418;50.070;8.436;2023-01-26T16:13:38;23.52;;;11.07;;
40729;SDS011;26418;50.070;8.436;2023-01-26T16:16:04;22.67;;;10.43;;
40729;SDS011;26418;50.070;8.436;2023-01-26T16:18:29;26.73;;;11.63;;
40729;SDS011;26418;50.070;8.436;2023-01-26T16:20:55;23.15;;;10.15;;
40729;SDS011;26418;50.070;8.436;2023-01-26T16:23:21;20.40;;;9.27;;
40729;SDS011;26418;50.070;8.436;2023-01-26T16:25:52;23.23;;;9.98;;
40729;SDS011;26418;50.070;8.436;2023-01-26T16:28:19;23.02;;;10.02;;
40729;SDS011;26418;50.070;8.436;2023-01-26T16:30:46;21.23;;;9.63;;
40729;SDS011;26418;50.070;8.436;2023-01-26T16:33:14;33.05;;;13.80;;
40729;SDS011;26418;50.070;8.436;2023-01-26T16:35:41;38.58;;;19.73;;
40729;SDS011;26418;50.070;8.436;2023-01-26T16:38:07;35.75;;;16.60;;
40729;SDS011;26418;50.070;8.436;2023-01-26T16:40:36;30.63;;;14.52;;
40729;SDS011;26418;50.070;8.436;2023-01-26T16:43:17;28.88;;;13.00;;
40729;SDS011;26418;50.070;8.436;2023-01-26T16:45:45;25.55;;;11.80;;
40729;SDS011;26418;50.070;8.436;2023-01-26T16:48:13;24.70;;;11.30;;
40729;SDS011;26418;50.070;8.436;2023-01-26T16:50:40;21.63;;;10.27;;